• pl
  • eng

Awiacja
NEWS
last updated: 12.09.2019 14:49<\/div>
Dear users,
We would like to inform you that from September 2nd a test form of the GAFOR forecast is available on our webpage. Please send your comments and suggestions to gafor@imgw.pl that will contribute to product development.
Click on the bold red name to decode a message. 15:31 18.09.2020
  • WIND
  • SIGNIFICANT EURO
  • SIGNIFICANT
  • SIGMET
  • AIRMET
  • TAF FC
  • TAF FT
  • METAR GG30
  • METAR GG00


METAR EPBY 181330Z 30006KT 250V350 CAVOK 19/05 Q1028=

METAR EPGD 181330Z 30010KT CAVOK 17/06 Q1027 =

METAR EPKK 181330Z 35004KT 270V080 CAVOK 17/04 Q1028 =

METAR EPKT 181330Z 35005KT 230V030 CAVOK 16/03 Q1028 =

METAR EPLB 181330Z 31011KT CAVOK 17/05 Q1026 =

METAR EPLL 181330Z 33007KT 260V040 CAVOK 17/04 Q1028 =

METAR EPMO 181330Z 33009KT 300V010 CAVOK 18/04 Q1027 =

METAR EPPO 181330Z 32006KT CAVOK 18/02 Q1029 =

METAR EPRA 181330Z 30009KT 260V340 CAVOK 17/05 Q1027=

METAR EPRZ 181330Z 32010KT 280V340 CAVOK 17/03 Q1026 =

METAR EPSC 181330Z 27006KT 200V360 CAVOK 18/09 Q1029 =

METAR EPSY 181330Z 33010KT 290V360 CAVOK 17/06 Q1026=

METAR EPWA 181330Z 31010KT 280V340 CAVOK 18/04 Q1027 NOSIG=

METAR EPWR 181330Z 27003KT 190V340 CAVOK 18/03 Q1029 =

METAR EPZG 181330Z VRB02KT CAVOK 19/M03 Q1029 =
 METAR EPSY
Location:EPSY
Time:13:30 UTC
Average wind direction:330 °
Mean wind speed:10 knots
Wind direction from:290 °
Wind direction to:360 °
CAVOK:Visibility 10 km or more, NIL, NSC
Temperature:17 °C
Dew point:6 °C
QNH:1026 hPa
Awiacja.imgw.pl jest pogodowym serwisem informacyjnym
Instytutu Meteorologii i Gospodarki Wodnej Państwowego Instytutu Badawczego.
Copyright IMGW PIB 2009-2019© Wszelkie prawa zastrzeżone.